Time;durP1;ratioP1;P1;durP2;ratioP2;P2;SDS_P1;SDS_P2;PMS_P1;PMS_P2;Temp;Humidity;BMP_temperature;BMP_pressure;BME280_temperature;BME280_humidity;BME280_pressure;Samples;Min_cycle;Max_cycle;Signal;HPM_P1;HPM_P2
2022/06/17 00:01:26;;;;;;;;;;;;;;;21.85;80.35;97239.51;607001;234;66577;-68
2022/06/17 00:03:55;;;;;;;;;;;;;;;21.86;80.38;97240.30;606992;234;65507;-69
2022/06/17 00:06:25;;;;;;;;;;;;;;;21.84;80.39;97232.53;606988;234;65362;-69
2022/06/17 00:08:53;;;;;;;;;;;;;;;21.85;80.34;97239.51;606981;234;64645;-69
2022/06/17 00:11:23;;;;;;;;;;;;;;;21.86;80.30;97234.95;606991;234;64393;-68
2022/06/17 00:13:50;;;;;;;;;;;;;;;21.85;80.24;97234.16;606910;233;64980;-70
2022/06/17 00:16:19;;;;;;;;;;;;;;;21.86;80.44;97232.28;606961;234;66716;-69
2022/06/17 00:18:46;;;;;;;;;;;;;;;21.85;80.47;97223.45;603679;234;66629;-69
2022/06/17 00:21:16;;;;;;;;;;;;;;;21.84;80.51;97221.83;601194;236;64860;-69
2022/06/17 00:23:43;;;;;;;;;;;;;;;21.85;80.57;97210.08;601032;234;64849;-69
2022/06/17 00:26:11;;;;;;;;;;;;;;;21.84;80.59;97211.13;601152;233;65119;-68
2022/06/17 00:28:39;;;;;;;;;;;;;;;21.85;80.55;97218.11;601232;236;62920;-69
2022/06/17 00:31:06;;;;;;;;;;;;;;;21.85;80.50;97222.62;601199;236;64960;-68
2022/06/17 00:33:34;;;;;;;;;;;;;;;21.85;80.46;97218.11;601175;236;67856;-68
2022/06/17 00:36:01;;;;;;;;;;;;;;;21.85;80.45;97211.92;601197;236;64833;-68
2022/06/17 00:38:31;;;;;;;;;;;;;;;21.85;80.42;97209.25;601172;233;64901;-68
2022/06/17 00:40:59;;;;;;;;;;;;;;;21.85;80.52;97209.25;601220;236;67740;-69
2022/06/17 00:43:31;;;;;;;;;;;;;;;21.84;80.50;97200.43;601218;236;62786;-69
2022/06/17 00:46:05;;;;;;;;;;;;;;;21.85;80.51;97201.22;601181;236;67122;-69
2022/06/17 00:48:39;;;;;;;;;;;;;;;21.83;80.41;97193.48;601211;236;64780;-70
2022/06/17 00:51:11;;;;;;;;;;;;;;;21.83;80.35;97193.48;601120;235;62849;-70
2022/06/17 00:53:41;;;;;;;;;;;;;;;21.84;80.39;97194.28;600954;234;65074;-69
2022/06/17 00:56:19;;;;;;;;;;;;;;;21.83;80.37;97190.02;601175;233;66893;-70
2022/06/17 00:59:00;;;;;;;;;;;;;;;21.84;80.42;97195.08;601142;234;65061;-70
2022/06/17 01:01:29;;;;;;;;;;;;;;;21.84;80.42;97191.61;601125;233;67578;-69
2022/06/17 01:03:58;;;;;;;;;;;;;;;21.84;80.51;97183.58;601187;233;67061;-69
2022/06/17 01:06:30;;;;;;;;;;;;;;;21.84;80.50;97195.08;601181;236;64912;-69
2022/06/17 01:11:44;;;;;;;;;;;;;;;21.84;80.50;97189.73;601222;233;64788;-68
2022/06/17 01:14:14;;;;;;;;;;;;;;;21.84;80.47;97196.95;601174;236;64804;-69
2022/06/17 01:16:43;;;;;;;;;;;;;;;21.83;80.46;97188.14;601145;236;65294;-68
2022/06/17 01:19:14;;;;;;;;;;;;;;;21.83;80.48;97190.81;605380;234;46815;-69
2022/06/17 01:21:46;;;;;;;;;;;;;;;21.82;80.45;97196.42;604840;234;62848;-69
2022/06/17 01:24:15;;;;;;;;;;;;;;;21.83;80.48;97190.81;606908;232;67126;-68
2022/06/17 01:26:42;;;;;;;;;;;;;;;21.82;80.47;97175.81;607004;234;64853;-69
2022/06/17 01:29:14;;;;;;;;;;;;;;;21.83;80.48;97190.81;606947;234;65602;-69
2022/06/17 01:31:43;;;;;;;;;;;;;;;21.83;80.46;97184.66;606970;234;67184;-69
2022/06/17 01:34:13;;;;;;;;;;;;;;;21.84;80.38;97191.61;606826;233;64488;-68
2022/06/17 01:36:41;;;;;;;;;;;;;;;21.83;80.33;97190.81;606963;231;62702;-68
2022/06/17 01:39:11;;;;;;;;;;;;;;;21.83;80.33;97180.11;606985;234;67023;-69
2022/06/17 01:41:38;;;;;;;;;;;;;;;21.83;80.37;97185.46;606933;234;67137;-68
2022/06/17 01:44:07;;;;;;;;;;;;;;;21.83;80.36;97182.78;606960;234;62745;-69
2022/06/17 01:46:39;;;;;;;;;;;;;;;21.83;80.34;97187.34;606822;233;67231;-69
2022/06/17 01:49:09;;;;;;;;;;;;;;;21.82;80.36;97181.17;606940;234;64949;-68
2022/06/17 01:51:38;;;;;;;;;;;;;;;21.82;80.40;97175.81;606945;234;62829;-68
2022/06/17 01:54:07;;;;;;;;;;;;;;;21.83;80.41;97171.29;607001;234;65860;-69
2022/06/17 01:56:37;;;;;;;;;;;;;;;21.82;80.42;97167.79;606950;234;67367;-71
2022/06/17 01:59:06;;;;;;;;;;;;;;;21.83;80.39;97171.29;606970;234;62420;-71
2022/06/17 02:01:35;;;;;;;;;;;;;;;21.83;80.32;97166.73;606957;234;65539;-71
2022/06/17 02:04:10;;;;;;;;;;;;;;;21.83;80.33;97168.62;606947;234;66903;-72
2022/06/17 02:06:46;;;;;;;;;;;;;;;21.82;80.35;97162.44;606673;233;64853;-71
2022/06/17 02:09:14;;;;;;;;;;;;;;;21.82;80.37;97159.77;607000;234;65042;-71
2022/06/17 02:11:42;;;;;;;;;;;;;;;21.82;80.35;97162.44;606950;234;66725;-71
2022/06/17 02:14:12;;;;;;;;;;;;;;;21.82;80.32;97165.11;606770;232;44987;-71
2022/06/17 02:16:52;;;;;;;;;;;;;;;21.83;80.28;97163.27;606842;233;44382;-71
2022/06/17 02:19:39;;;;;;;;;;;;;;;21.82;80.33;97157.09;607034;234;38768;-72
2022/06/17 02:22:12;;;;;;;;;;;;;;;21.82;80.30;97167.00;606955;234;65664;-71
2022/06/17 02:24:41;;;;;;;;;;;;;;;21.82;80.28;97164.31;607025;234;64435;-71
2022/06/17 02:27:12;;;;;;;;;;;;;;;21.81;80.28;97176.91;606947;234;65719;-71
2022/06/17 02:29:41;;;;;;;;;;;;;;;21.82;80.27;97177.70;606952;234;64758;-71
2022/06/17 02:32:10;;;;;;;;;;;;;;;21.82;80.27;97178.48;606937;234;67017;-71
2022/06/17 02:34:39;;;;;;;;;;;;;;;21.82;80.30;97180.37;606958;234;66930;-71
2022/06/17 02:37:08;;;;;;;;;;;;;;;21.81;80.27;97182.25;606754;233;64939;-71
2022/06/17 02:39:37;;;;;;;;;;;;;;;21.82;80.30;97183.84;606901;232;67206;-71
2022/06/17 02:42:05;;;;;;;;;;;;;;;21.82;80.26;97180.37;606972;234;66726;-71
2022/06/17 02:44:37;;;;;;;;;;;;;;;21.82;80.27;97186.52;606962;234;62853;-71
2022/06/17 02:47:06;;;;;;;;;;;;;;;21.82;80.28;97186.52;606878;231;67060;-71
2022/06/17 02:49:35;;;;;;;;;;;;;;;21.82;80.32;97183.05;606976;234;64835;-70
2022/06/17 02:52:05;;;;;;;;;;;;;;;21.81;80.35;97182.25;606981;234;65641;-71
2022/06/17 02:54:34;;;;;;;;;;;;;;;21.82;80.36;97183.05;606810;233;64786;-71
2022/06/17 02:57:03;;;;;;;;;;;;;;;21.81;80.31;97184.92;606794;233;65111;-71
2022/06/17 02:59:35;;;;;;;;;;;;;;;21.81;80.30;97179.58;606951;231;62342;-68
2022/06/17 03:02:05;;;;;;;;;;;;;;;21.81;80.35;97179.58;606963;234;67667;-72
2022/06/17 03:04:34;;;;;;;;;;;;;;;21.81;80.34;97179.58;606415;234;44176;-72
2022/06/17 03:07:07;;;;;;;;;;;;;;;21.81;80.35;97174.22;606958;234;64946;-71
2022/06/17 03:09:34;;;;;;;;;;;;;;;21.81;80.33;97179.58;606878;233;67058;-71
2022/06/17 03:12:06;;;;;;;;;;;;;;;21.81;80.31;97176.91;606975;234;64593;-71
2022/06/17 03:14:37;;;;;;;;;;;;;;;21.81;80.29;97184.92;606987;234;64862;-73
2022/06/17 03:17:06;;;;;;;;;;;;;;;21.81;80.29;97186.80;606893;234;66839;-71
2022/06/17 03:19:39;;;;;;;;;;;;;;;21.81;80.33;97174.22;601830;234;66825;-73
2022/06/17 03:22:07;;;;;;;;;;;;;;;21.81;80.31;97184.92;601151;236;65146;-71
2022/06/17 03:24:38;;;;;;;;;;;;;;;21.80;80.27;97183.34;601153;236;64552;-71
2022/06/17 03:27:06;;;;;;;;;;;;;;;21.81;80.28;97184.12;601165;233;67173;-71
2022/06/17 03:29:35;;;;;;;;;;;;;;;21.81;80.29;97184.92;601177;233;64846;-72
2022/06/17 03:32:04;;;;;;;;;;;;;;;21.80;80.25;97172.63;601232;236;64892;-71
2022/06/17 03:34:34;;;;;;;;;;;;;;;21.80;80.29;97177.98;601152;236;67498;-71
2022/06/17 03:37:10;;;;;;;;;;;;;;;21.81;80.26;97184.92;598459;235;64283;-71
2022/06/17 03:39:39;;;;;;;;;;;;;;;21.80;80.25;97183.34;600928;234;66968;-71
2022/06/17 03:42:14;;;;;;;;;;;;;;;21.80;80.22;97183.34;601167;236;64459;-71
2022/06/17 03:44:46;;;;;;;;;;;;;;;21.80;80.23;97174.48;601179;234;64923;-71
2022/06/17 03:47:22;;;;;;;;;;;;;;;21.80;80.28;97177.98;601130;234;67042;-71
2022/06/17 03:49:51;;;;;;;;;;;;;;;21.80;80.31;97180.66;601175;233;66870;-71
2022/06/17 03:52:37;;;;;;;;;;;;;;;21.79;80.25;97181.71;601140;236;65677;-71
2022/06/17 03:55:08;;;;;;;;;;;;;;;21.80;80.30;97180.66;601097;234;44140;-71
2022/06/17 03:57:36;;;;;;;;;;;;;;;21.78;80.37;97177.45;601166;236;66982;-71
2022/06/17 04:00:05;;;;;;;;;;;;;;;21.79;80.34;97181.71;601184;236;64935;-71
2022/06/17 04:02:34;;;;;;;;;;;;;;;21.79;80.37;97184.39;601118;234;48521;-71
2022/06/17 04:05:04;;;;;;;;;;;;;;;21.80;80.34;97182.51;601234;236;64220;-71
2022/06/17 04:07:33;;;;;;;;;;;;;;;21.80;80.30;97186.01;601211;235;65041;-71
2022/06/17 04:10:01;;;;;;;;;;;;;;;21.79;80.29;97189.73;601194;235;66965;-71
2022/06/17 04:12:30;;;;;;;;;;;;;;;21.79;80.33;97184.39;601216;236;64413;-71
2022/06/17 04:15:19;;;;;;;;;;;;;;;21.80;80.28;97179.83;586097;240;46339;-71
2022/06/17 04:17:51;;;;;;;;;;;;;;;21.79;80.24;97181.71;586648;240;67436;-71
2022/06/17 04:20:36;;;;;;;;;;;;;;;21.79;80.28;97187.06;596495;233;66721;-72
2022/06/17 04:23:08;;;;;;;;;;;;;;;21.79;80.29;97189.73;607000;234;62643;-72
2022/06/17 04:26:00;;;;;;;;;;;;;;;21.79;80.25;97183.59;606989;233;46531;-72
2022/06/17 04:28:30;;;;;;;;;;;;;;;21.78;80.32;97188.15;606976;234;67239;-71
2022/06/17 04:30:59;;;;;;;;;;;;;;;21.79;80.33;97184.39;606938;231;65749;-72
2022/06/17 04:33:28;;;;;;;;;;;;;;;21.79;80.37;97187.06;606973;234;66879;-71
2022/06/17 04:36:06;;;;;;;;;;;;;;;21.79;80.37;97183.59;606711;233;67383;-71
2022/06/17 04:38:36;;;;;;;;;;;;;;;21.78;80.33;97184.68;606844;233;65287;-71
2022/06/17 04:41:16;;;;;;;;;;;;;;;21.79;80.38;97181.71;601209;233;48597;-71
2022/06/17 04:43:47;;;;;;;;;;;;;;;21.78;80.44;97185.47;605850;234;48106;-71
2022/06/17 04:46:17;;;;;;;;;;;;;;;21.78;80.42;97182.80;606957;234;65697;-73
2022/06/17 04:48:45;;;;;;;;;;;;;;;21.79;80.45;97181.71;606912;232;65151;-72
2022/06/17 04:51:13;;;;;;;;;;;;;;;21.78;80.40;97174.77;607027;234;66950;-72
2022/06/17 04:53:42;;;;;;;;;;;;;;;21.78;80.39;97177.45;606846;234;64966;-72
2022/06/17 04:56:28;;;;;;;;;;;;;;;21.78;80.35;97182.80;606985;233;37941;-73
2022/06/17 04:58:58;;;;;;;;;;;;;;;21.79;80.31;97175.56;605803;234;46064;-72
2022/06/17 05:01:28;;;;;;;;;;;;;;;21.80;80.39;97185.19;606252;234;65723;-71
2022/06/17 05:04:01;;;;;;;;;;;;;;;21.78;80.39;97182.80;606426;233;47043;-71
2022/06/17 05:06:33;;;;;;;;;;;;;;;21.78;80.35;97182.80;606708;233;45648;-72
2022/06/17 05:09:03;;;;;;;;;;;;;;;21.78;80.34;97184.68;606697;234;63038;-71
2022/06/17 05:11:35;;;;;;;;;;;;;;;21.77;80.36;97186.55;606831;234;67243;-71
2022/06/17 05:14:04;;;;;;;;;;;;;;;21.78;80.44;97182.80;606964;234;67404;-73
2022/06/17 05:16:33;;;;;;;;;;;;;;;21.77;80.42;97189.23;606931;231;63445;-72
2022/06/17 05:19:01;;;;;;;;;;;;;;;21.78;80.35;97180.13;602975;234;67613;-72
2022/06/17 05:21:28;;;;;;;;;;;;;;;21.78;80.40;97179.33;601229;236;67226;-72
2022/06/17 05:23:58;;;;;;;;;;;;;;;21.79;80.50;97186.27;601105;234;42159;-71
2022/06/17 05:26:28;;;;;;;;;;;;;;;21.79;80.44;97186.27;601144;235;44222;-72
2022/06/17 05:28:56;;;;;;;;;;;;;;;21.77;80.50;97178.53;601119;236;67787;-71
2022/06/17 05:31:26;;;;;;;;;;;;;;;21.78;80.48;97180.13;601212;235;43010;-71
2022/06/17 05:33:55;;;;;;;;;;;;;;;21.77;80.46;97165.16;601202;234;47058;-72
2022/06/17 05:36:23;;;;;;;;;;;;;;;21.78;80.47;97172.09;601162;233;67353;-71
2022/06/17 05:38:51;;;;;;;;;;;;;;;21.78;80.47;97168.63;601177;236;65502;-70
2022/06/17 05:41:20;;;;;;;;;;;;;;;21.78;80.49;97165.95;601145;236;67951;-70
2022/06/17 05:43:49;;;;;;;;;;;;;;;21.78;80.56;97163.27;600782;236;68864;-70
2022/06/17 05:46:19;;;;;;;;;;;;;;;21.78;80.52;97166.75;601160;234;42480;-73
2022/06/17 05:48:51;;;;;;;;;;;;;;;21.78;80.56;97160.60;592115;236;49052;-73
2022/06/17 05:51:39;;;;;;;;;;;;;;;21.78;80.57;97147.22;586065;240;46839;-71
2022/06/17 05:54:24;;;;;;;;;;;;;;;21.77;80.60;97149.11;580535;242;47686;-72
2022/06/17 05:56:53;;;;;;;;;;;;;;;21.77;80.57;97146.43;588359;236;48366;-72
2022/06/17 05:59:21;;;;;;;;;;;;;;;21.76;80.58;97139.45;600477;236;64403;-70
2022/06/17 06:01:49;;;;;;;;;;;;;;;21.76;80.55;97134.11;601105;236;64881;-70
2022/06/17 06:04:18;;;;;;;;;;;;;;;21.76;80.19;97131.44;601437;233;45506;-71
2022/06/17 06:06:46;;;;;;;;;;;;;;;21.77;80.19;97133.05;607704;233;64508;-71
2022/06/17 06:09:13;;;;;;;;;;;;;;;21.78;80.37;97140.00;607810;233;63008;-71
2022/06/17 06:11:41;;;;;;;;;;;;;;;21.78;80.31;97141.88;607886;233;67078;-71
2022/06/17 06:14:09;;;;;;;;;;;;;;;21.77;80.29;97135.73;607740;233;64329;-75
2022/06/17 06:16:40;;;;;;;;;;;;;;;21.77;79.80;97141.08;607797;233;65119;-75
2022/06/17 06:19:08;;;;;;;;;;;;;;;21.79;79.06;97130.88;607781;233;67936;-75
2022/06/17 06:21:36;;;;;;;;;;;;;;;21.80;79.49;97132.50;607826;233;67541;-75
2022/06/17 06:24:03;;;;;;;;;;;;;;;21.81;79.65;97128.75;607903;233;65040;-67
2022/06/17 06:26:32;;;;;;;;;;;;;;;21.81;79.76;97131.42;607834;233;64437;-66
2022/06/17 06:29:17;;;;;;;;;;;;;;;21.81;79.73;97127.95;607749;233;45673;-69
2022/06/17 06:31:45;;;;;;;;;;;;;;;21.82;79.85;97121.52;607891;233;62247;-71
2022/06/17 06:34:16;;;;;;;;;;;;;;;21.83;79.64;97123.14;607558;233;45264;-71
2022/06/17 06:36:44;;;;;;;;;;;;;;;21.82;79.52;97122.31;607836;233;64636;-73
2022/06/17 06:39:13;;;;;;;;;;;;;;;21.84;79.40;97120.17;607860;233;64864;-71
2022/06/17 06:41:41;;;;;;;;;;;;;;;21.83;79.37;97115.91;607821;233;64477;-73
2022/06/17 06:44:10;;;;;;;;;;;;;;;21.84;79.27;97109.47;607869;233;65946;-71
2022/06/17 06:46:43;;;;;;;;;;;;;;;21.85;79.17;97116.44;607969;233;46337;-71
2022/06/17 06:49:14;;;;;;;;;;;;;;;21.85;79.17;97108.41;607419;233;44079;-71
2022/06/17 06:51:41;;;;;;;;;;;;;;;21.86;79.12;97109.20;607861;233;65703;-71
2022/06/17 06:54:09;;;;;;;;;;;;;;;21.86;79.06;97107.33;607724;233;64884;-71
2022/06/17 06:56:36;;;;;;;;;;;;;;;21.87;79.04;97102.77;607770;233;66982;-71
2022/06/17 06:59:04;;;;;;;;;;;;;;;21.87;78.97;97092.07;607852;233;66847;-71
2022/06/17 07:01:33;;;;;;;;;;;;;;;21.87;78.94;97094.74;607810;233;62700;-71
2022/06/17 07:04:01;;;;;;;;;;;;;;;21.88;78.88;97099.01;607681;233;64291;-71
2022/06/17 07:06:31;;;;;;;;;;;;;;;21.88;78.88;97088.31;607649;233;45740;-71
2022/06/17 07:08:58;;;;;;;;;;;;;;;21.88;78.86;97089.13;607820;233;62578;-71
2022/06/17 07:11:26;;;;;;;;;;;;;;;21.89;78.85;97095.28;607833;233;67250;-71
2022/06/17 07:13:53;;;;;;;;;;;;;;;21.89;78.96;97085.38;607826;233;66776;-72
2022/06/17 07:16:21;;;;;;;;;;;;;;;21.90;79.12;97088.84;607769;233;64867;-70
2022/06/17 07:18:48;;;;;;;;;;;;;;;21.90;79.55;97086.95;604154;233;66905;-71
2022/06/17 07:21:16;;;;;;;;;;;;;;;21.89;79.57;97085.38;602480;233;66969;-70
2022/06/17 07:23:45;;;;;;;;;;;;;;;21.90;79.61;97084.28;604289;232;65112;-71
2022/06/17 07:26:14;;;;;;;;;;;;;;;21.90;79.66;97086.95;602108;235;66903;-70
2022/06/17 07:28:41;;;;;;;;;;;;;;;21.91;79.58;97085.11;603694;233;66898;-70
2022/06/17 07:31:11;;;;;;;;;;;;;;;21.90;79.50;97089.64;602537;232;46665;-71
2022/06/17 07:33:38;;;;;;;;;;;;;;;21.90;79.43;97080.81;600184;236;64833;-71
2022/06/17 07:36:07;;;;;;;;;;;;;;;21.91;79.32;97083.23;600170;236;64826;-71
2022/06/17 07:41:24;;;;;;;;;;;;;;;21.91;79.30;97083.23;600153;236;73047;-70
2022/06/17 07:43:53;;;;;;;;;;;;;;;21.92;79.56;97078.67;600180;236;69002;-69
2022/06/17 07:46:20;;;;;;;;;;;;;;;22.02;76.79;97083.98;600119;236;62633;-69
2022/06/17 07:48:48;;;;;;;;;;;;;;;21.99;76.25;97086.39;599884;236;65045;-68
2022/06/17 07:51:16;;;;;;;;;;;;;;;21.98;76.79;97090.94;589282;236;64509;-69
2022/06/17 07:53:43;;;;;;;;;;;;;;;21.97;78.05;97084.00;599981;236;62800;-68
2022/06/17 07:56:14;;;;;;;;;;;;;;;21.95;78.99;97092.30;600145;236;67146;-68
2022/06/17 07:58:41;;;;;;;;;;;;;;;21.95;79.00;97092.30;599784;236;67501;-68
2022/06/17 08:01:10;;;;;;;;;;;;;;;21.95;78.91;97091.50;599815;236;65115;-69
2022/06/17 08:03:37;;;;;;;;;;;;;;;21.94;78.92;97090.70;600089;236;67258;-68
2022/06/17 08:06:05;;;;;;;;;;;;;;;21.95;78.96;97088.82;601820;233;66992;-68
2022/06/17 08:08:34;;;;;;;;;;;;;;;21.94;79.00;97085.35;605109;233;62713;-71
2022/06/17 08:11:02;;;;;;;;;;;;;;;21.95;79.10;97088.82;607852;233;64844;-70
2022/06/17 08:13:29;;;;;;;;;;;;;;;21.94;79.26;97088.03;607885;233;66690;-68
2022/06/17 08:15:58;;;;;;;;;;;;;;;21.95;79.33;97092.30;607838;233;64978;-70
2022/06/17 08:18:26;;;;;;;;;;;;;;;21.95;79.42;97094.97;608741;232;67005;-69
2022/06/17 08:20:53;;;;;;;;;;;;;;;21.95;79.47;97089.62;609951;232;66706;-68
2022/06/17 08:23:21;;;;;;;;;;;;;;;21.95;79.58;97094.17;609948;232;64888;-68
2022/06/17 08:25:49;;;;;;;;;;;;;;;21.96;79.64;97095.77;609977;232;67127;-68
2022/06/17 08:28:17;;;;;;;;;;;;;;;21.95;79.62;97092.30;609907;232;67792;-71
2022/06/17 08:30:46;;;;;;;;;;;;;;;21.96;79.78;97103.79;609975;232;62893;-73
2022/06/17 08:33:14;;;;;;;;;;;;;;;21.99;77.36;97097.09;609730;232;64595;-71
2022/06/17 08:35:47;;;;;;;;;;;;;;;22.00;77.62;97096.03;609930;232;64603;-72
2022/06/17 08:38:17;;;;;;;;;;;;;;;22.00;79.02;97096.03;609925;232;64849;-72
2022/06/17 08:40:55;;;;;;;;;;;;;;;21.98;78.85;97101.64;609965;232;67076;-72
2022/06/17 08:43:27;;;;;;;;;;;;;;;21.98;79.12;97098.17;609910;232;64879;-71
2022/06/17 08:45:56;;;;;;;;;;;;;;;21.97;79.11;97099.27;609921;232;62709;-71
2022/06/17 08:48:25;;;;;;;;;;;;;;;21.95;79.41;97089.62;609968;232;66888;-72
2022/06/17 08:50:56;;;;;;;;;;;;;;;21.97;79.40;97096.59;609529;232;66884;-71
2022/06/17 08:53:37;;;;;;;;;;;;;;;21.95;79.33;97088.82;609093;232;65062;-73
2022/06/17 08:56:07;;;;;;;;;;;;;;;21.95;79.41;97089.62;609939;232;67230;-71
2022/06/17 08:58:42;;;;;;;;;;;;;;;21.96;79.41;97090.41;609824;232;64816;-70
2022/06/17 09:01:14;;;;;;;;;;;;;;;21.97;79.62;97093.91;609930;232;64987;-70
2022/06/17 09:03:46;;;;;;;;;;;;;;;21.97;79.28;97084.00;609750;232;67262;-71
2022/06/17 09:06:31;;;;;;;;;;;;;;;21.97;79.34;97085.88;608939;232;66636;-76
2022/06/17 09:09:03;;;;;;;;;;;;;;;21.97;78.18;97080.53;609677;232;62744;-71
2022/06/17 09:11:35;;;;;;;;;;;;;;;21.98;77.10;97088.27;601602;232;64661;-72
2022/06/17 09:14:04;;;;;;;;;;;;;;;22.02;78.64;97083.19;601154;233;67487;-73
2022/06/17 09:16:51;;;;;;;;;;;;;;;22.01;79.27;97084.24;601105;236;63101;-73
2022/06/17 09:19:20;;;;;;;;;;;;;;;22.01;79.58;97081.56;599529;233;64850;-71
2022/06/17 09:21:49;;;;;;;;;;;;;;;22.01;79.76;97078.89;599213;237;64936;-74
2022/06/17 09:24:18;;;;;;;;;;;;;;;22.01;79.84;97076.22;598970;237;64923;-72
2022/06/17 09:27:02;;;;;;;;;;;;;;;22.01;79.68;97081.56;599100;237;64490;-71
2022/06/17 09:29:31;;;;;;;;;;;;;;;22.00;79.91;97075.42;599129;237;66955;-72
2022/06/17 09:32:06;;;;;;;;;;;;;;;22.00;79.92;97078.09;599831;235;64941;-71
2022/06/17 09:34:35;;;;;;;;;;;;;;;22.01;79.94;97076.22;603363;233;66766;-71
2022/06/17 09:37:04;;;;;;;;;;;;;;;22.01;79.91;97081.56;603217;232;64861;-71
2022/06/17 09:39:48;;;;;;;;;;;;;;;21.99;79.93;97073.83;602019;233;46823;-73
2022/06/17 09:42:25;;;;;;;;;;;;;;;22.00;79.90;97074.63;601507;233;67310;-72
2022/06/17 09:44:55;;;;;;;;;;;;;;;22.00;79.86;97071.95;600165;236;64613;-71
2022/06/17 09:47:29;;;;;;;;;;;;;;;21.99;79.82;97073.00;601160;235;64901;-74
2022/06/17 09:50:02;;;;;;;;;;;;;;;21.99;79.82;97073.00;602515;233;67379;-73
2022/06/17 09:52:31;;;;;;;;;;;;;;;21.99;79.86;97063.12;602505;233;66896;-70
2022/06/17 09:55:03;;;;;;;;;;;;;;;21.99;79.86;97073.00;602971;232;62742;-72
2022/06/17 09:57:38;;;;;;;;;;;;;;;22.00;79.86;97077.30;600509;233;67046;-70
2022/06/17 10:00:07;;;;;;;;;;;;;;;22.00;79.82;97079.98;602847;233;64690;-72
2022/06/17 10:02:39;;;;;;;;;;;;;;;22.00;79.78;97082.66;604178;235;65557;-74
2022/06/17 10:05:07;;;;;;;;;;;;;;;21.99;79.71;97079.19;604071;234;67078;-73
2022/06/17 10:07:36;;;;;;;;;;;;;;;22.00;79.68;97077.30;604092;234;67182;-74
2022/06/17 10:10:06;;;;;;;;;;;;;;;21.99;79.65;97073.83;604033;234;66148;-71
2022/06/17 10:12:41;;;;;;;;;;;;;;;22.01;79.81;97073.54;604211;235;67046;-73
2022/06/17 10:15:16;;;;;;;;;;;;;;;22.01;79.90;97073.54;604174;235;64786;-74
2022/06/17 10:21:05;;;;;;;;;;;;;;;22.00;79.89;97064.72;601911;235;67290;-73
2022/06/17 10:23:37;;;;;;;;;;;;;;;22.00;79.91;97064.72;604180;235;66730;-74
2022/06/17 10:26:22;;;;;;;;;;;;;;;22.02;79.99;97069.80;604203;235;63154;-74
2022/06/17 10:28:51;;;;;;;;;;;;;;;22.00;80.09;97059.36;604149;235;68000;-73
2022/06/17 10:31:20;;;;;;;;;;;;;;;22.02;80.14;97064.45;603889;234;67418;-73
2022/06/17 10:33:48;;;;;;;;;;;;;;;22.03;78.26;97068.72;603484;235;65137;-74
2022/06/17 10:36:17;;;;;;;;;;;;;;;22.04;78.58;97070.31;604013;235;67241;-73
2022/06/17 10:38:46;;;;;;;;;;;;;;;22.03;79.74;97068.72;604141;235;67409;-73
2022/06/17 10:41:15;;;;;;;;;;;;;;;22.03;79.89;97076.75;604263;235;65310;-73
2022/06/17 10:43:45;;;;;;;;;;;;;;;22.02;79.82;97073.28;604178;235;67033;-69
2022/06/17 10:46:14;;;;;;;;;;;;;;;22.02;79.64;97067.92;603296;234;64832;-73
2022/06/17 10:48:43;;;;;;;;;;;;;;;22.02;79.58;97062.57;603978;235;63855;-73
2022/06/17 10:51:11;;;;;;;;;;;;;;;22.03;79.62;97066.05;604063;235;66790;-73
2022/06/17 10:53:49;;;;;;;;;;;;;;;22.03;79.64;97063.37;604159;235;66726;-72
2022/06/17 10:56:22;;;;;;;;;;;;;;;22.03;79.67;97066.05;604063;234;65141;-73
2022/06/17 10:58:58;;;;;;;;;;;;;;;22.03;79.69;97069.52;603775;234;67291;-73
2022/06/17 11:01:26;;;;;;;;;;;;;;;22.03;79.62;97066.84;604126;235;66861;-72
2022/06/17 11:04:00;;;;;;;;;;;;;;;22.02;79.61;97057.22;604237;234;46430;-74
2022/06/17 11:06:28;;;;;;;;;;;;;;;22.03;79.73;97058.02;600758;235;64793;-73
2022/06/17 11:08:57;;;;;;;;;;;;;;;22.03;79.58;97063.37;604283;235;66859;-71
2022/06/17 11:14:22;;;;;;;;;;;;;;;22.03;79.42;97060.69;604229;235;64946;-71
2022/06/17 11:16:50;;;;;;;;;;;;;;;22.04;79.35;97064.95;604257;235;66886;-70
2022/06/17 11:19:19;;;;;;;;;;;;;;;22.04;79.29;97056.92;607655;233;64911;-71
2022/06/17 11:21:48;;;;;;;;;;;;;;;22.04;79.23;97059.61;608743;233;64940;-71
2022/06/17 11:24:22;;;;;;;;;;;;;;;22.04;79.18;97054.25;608355;233;49611;-72
2022/06/17 11:27:03;;;;;;;;;;;;;;;22.04;79.13;97049.69;608378;233;62827;-73
2022/06/17 11:29:37;;;;;;;;;;;;;;;22.04;79.08;97054.25;608718;233;72573;-74
2022/06/17 11:32:22;;;;;;;;;;;;;;;22.05;79.04;97050.52;608739;233;64724;-74
2022/06/17 11:34:51;;;;;;;;;;;;;;;22.05;78.98;97045.16;608618;233;62957;-73
2022/06/17 11:37:20;;;;;;;;;;;;;;;22.05;79.05;97034.45;608470;233;65021;-73
2022/06/17 11:39:47;;;;;;;;;;;;;;;22.05;79.16;97039.81;608803;233;64730;-73
2022/06/17 11:42:19;;;;;;;;;;;;;;;22.06;79.23;97031.49;608638;233;62782;-73
2022/06/17 11:44:57;;;;;;;;;;;;;;;22.05;79.25;97024.55;608748;233;67063;-77
2022/06/17 11:47:25;;;;;;;;;;;;;;;22.06;79.34;97025.34;608600;233;67476;-69
2022/06/17 11:49:54;;;;;;;;;;;;;;;22.10;77.31;97029.08;608666;233;65126;-70
2022/06/17 11:52:28;;;;;;;;;;;;;;;22.11;77.21;97030.67;608709;233;67101;-70
2022/06/17 11:54:56;;;;;;;;;;;;;;;22.11;77.73;97027.99;608748;233;67406;-71
2022/06/17 11:57:25;;;;;;;;;;;;;;;22.10;79.09;97029.88;608737;233;65094;-73
2022/06/17 11:59:54;;;;;;;;;;;;;;;22.09;79.68;97028.25;608371;233;66847;-72
2022/06/17 12:02:22;;;;;;;;;;;;;;;22.09;79.79;97030.14;608642;233;66840;-73
2022/06/17 12:05:10;;;;;;;;;;;;;;;22.08;79.78;97028.55;608461;233;65042;-73
2022/06/17 12:07:42;;;;;;;;;;;;;;;22.08;79.69;97023.99;608299;233;67539;-72
2022/06/17 12:10:24;;;;;;;;;;;;;;;22.09;79.73;97030.14;608581;233;67551;-68
2022/06/17 12:12:52;;;;;;;;;;;;;;;22.08;79.77;97021.31;608738;233;62780;-71
2022/06/17 12:15:22;;;;;;;;;;;;;;;22.08;79.80;97025.88;608712;233;67320;-71
2022/06/17 12:17:51;;;;;;;;;;;;;;;22.08;79.82;97018.64;607865;233;66921;-69
2022/06/17 12:20:20;;;;;;;;;;;;;;;22.08;79.87;97015.96;604215;235;65249;-70
2022/06/17 12:22:58;;;;;;;;;;;;;;;22.09;79.82;97019.44;604194;235;67113;-73
2022/06/17 12:25:27;;;;;;;;;;;;;;;22.08;79.79;97013.28;604252;235;66866;-73
2022/06/17 12:27:59;;;;;;;;;;;;;;;22.08;79.70;97023.99;604288;235;65051;-73
2022/06/17 12:30:40;;;;;;;;;;;;;;;22.09;79.62;97014.08;604190;235;66985;-72
2022/06/17 12:33:09;;;;;;;;;;;;;;;22.08;79.53;97007.94;604106;234;64458;-71
2022/06/17 12:35:38;;;;;;;;;;;;;;;22.08;79.46;97009.81;604041;234;62819;-71
2022/06/17 12:38:10;;;;;;;;;;;;;;;22.09;78.56;97009.52;604180;235;64621;-73
2022/06/17 12:40:41;;;;;;;;;;;;;;;22.11;77.22;97001.23;603958;234;66823;-71
2022/06/17 12:43:25;;;;;;;;;;;;;;;22.12;77.68;97000.93;603312;235;63725;-72
2022/06/17 12:45:58;;;;;;;;;;;;;;;22.11;79.00;97002.02;604153;235;66989;-72
2022/06/17 12:48:36;;;;;;;;;;;;;;;22.10;79.50;97005.78;604236;235;66634;-72
2022/06/17 12:54:01;;;;;;;;;;;;;;;22.10;79.47;96999.64;604170;235;66797;-72
2022/06/17 12:56:47;;;;;;;;;;;;;;;22.10;79.50;97000.44;604230;235;66645;-70
2022/06/17 12:59:16;;;;;;;;;;;;;;;22.10;79.49;96999.64;604129;235;65117;-71
2022/06/17 13:01:57;;;;;;;;;;;;;;;22.10;79.47;96999.64;603228;235;66919;-71
2022/06/17 13:04:42;;;;;;;;;;;;;;;22.10;79.19;96994.29;602996;233;65151;-73
2022/06/17 13:07:13;;;;;;;;;;;;;;;22.10;79.13;96994.29;607865;233;46034;-71
2022/06/17 13:09:48;;;;;;;;;;;;;;;22.10;78.91;96994.29;607816;233;67950;-70
2022/06/17 13:12:17;;;;;;;;;;;;;;;22.09;78.83;96993.47;607823;233;64795;-73
2022/06/17 13:14:55;;;;;;;;;;;;;;;22.10;78.75;96988.94;607773;233;62753;-73
2022/06/17 13:17:24;;;;;;;;;;;;;;;22.10;78.71;96986.27;607858;233;67192;-72
2022/06/17 13:19:54;;;;;;;;;;;;;;;22.10;78.67;96983.58;607778;233;67110;-70
2022/06/17 13:22:38;;;;;;;;;;;;;;;22.10;78.63;96987.05;607814;233;64892;-72